Time;durP1;ratioP1;P1;durP2;ratioP2;P2;SDS_P1;SDS_P2;PMS_P1;PMS_P2;Temp;Humidity;BMP_temperature;BMP_pressure;BME280_temperature;BME280_humidity;BME280_pressure;Samples;Min_cycle;Max_cycle;Signal;HPM_P1;HPM_P2
2023/06/28 00:00:06;;;;;;;;;;;;;;;;;;4992724;28;7205;-86
2023/06/28 00:02:35;;;;;;;;;;;;;;;;;;4992437;28;8500;-86
2023/06/28 00:05:10;;;;;;;;;;;;;;;;;;4992614;28;8545;-86
2023/06/28 00:07:36;;;;;;;;;;;;;;;;;;4992816;28;7110;-86
2023/06/28 00:10:03;;;;;;;;;;;;;;;;;;4992967;28;8677;-86
2023/06/28 00:12:30;;;;;;;;;;;;;;;;;;4992585;28;8472;-85
2023/06/28 00:14:56;;;;;;;;;;;;;;;;;;4992606;28;8813;-86
2023/06/28 00:17:27;;;;;;;;;;;;;;;;;;4992756;28;8547;-86
2023/06/28 00:19:56;;;;;;;;;;;;;;;;;;4992508;28;8428;-86
2023/06/28 00:22:31;;;;;;;;;;;;;;;;;;4992938;28;7249;-85
2023/06/28 00:25:01;;;;;;;;;;;;;;;;;;4992608;28;7301;-86
2023/06/28 00:27:27;;;;;;;;;;;;;;;;;;4990801;28;8523;-87
2023/06/28 00:29:56;;;;;;;;;;;;;;;;;;5000578;28;8486;-86
2023/06/28 00:32:23;;;;;;;;;;;;;;;;;;4973124;28;7430;-86
2023/06/28 00:34:49;;;;;;;;;;;;;;;;;;4972946;28;7127;-86
2023/06/28 00:37:15;;;;;;;;;;;;;;;;;;4973062;28;7162;-87
2023/06/28 00:39:40;;;;;;;;;;;;;;;;;;4976073;28;8343;-86
2023/06/28 00:42:06;;;;;;;;;;;;;;;;;;4977159;28;7135;-86
2023/06/28 00:44:32;;;;;;;;;;;;;;;;;;4976762;28;7386;-85
2023/06/28 00:46:59;;;;;;;;;;;;;;;;;;4976941;28;7212;-86
2023/06/28 00:49:27;;;;;;;;;;;;;;;;;;4976989;28;8738;-86
2023/06/28 00:51:54;;;;;;;;;;;;;;;;;;4977191;28;8396;-85
2023/06/28 00:54:20;;;;;;;;;;;;;;;;;;4977082;28;7187;-85
2023/06/28 00:56:48;;;;;;;;;;;;;;;;;;4976593;28;8450;-86
2023/06/28 00:59:17;;;;;;;;;;;;;;;;;;4976717;28;7102;-85
2023/06/28 01:01:43;;;;;;;;;;;;;;;;;;4976481;28;8371;-85
2023/06/28 01:04:08;;;;;;;;;;;;;;;;;;4976349;28;8512;-85
2023/06/28 01:06:37;;;;;;;;;;;;;;;;;;4976608;28;7388;-85
2023/06/28 01:09:10;;;;;;;;;;;;;;;;;;4976461;28;7357;-85
2023/06/28 01:11:36;;;;;;;;;;;;;;;;;;4976087;28;8511;-85
2023/06/28 01:14:03;;;;;;;;;;;;;;;;;;4976356;28;8508;-84
2023/06/28 01:16:29;;;;;;;;;;;;;;;;;;4976353;28;8568;-84
2023/06/28 01:18:55;;;;;;;;;;;;;;;;;;4976202;28;8438;-85
2023/06/28 01:21:26;;;;;;;;;;;;;;;;;;4976503;28;7076;-85
2023/06/28 01:23:51;;;;;;;;;;;;;;;;;;4976044;28;8505;-90
2023/06/28 01:26:17;;;;;;;;;;;;;;;;;;4978050;28;8499;-82
2023/06/28 01:28:44;;;;;;;;;;;;;;;;;;4981094;28;7099;-90
2023/06/28 01:31:11;;;;;;;;;;;;;;;;;;5011679;28;8592;-85
2023/06/28 01:33:42;;;;;;;;;;;;;;;;;;5011586;28;7232;-85
2023/06/28 01:36:11;;;;;;;;;;;;;;;;;;5011936;28;8892;-85
2023/06/28 01:38:38;;;;;;;;;;;;;;;;;;5011781;28;8518;-85
2023/06/28 01:41:06;;;;;;;;;;;;;;;;;;5011732;28;8485;-86
2023/06/28 01:43:32;;;;;;;;;;;;;;;;;;5012062;28;8533;-85
2023/06/28 01:45:58;;;;;;;;;;;;;;;;;;5011366;28;8506;-85
2023/06/28 01:48:24;;;;;;;;;;;;;;;;;;5011594;28;8406;-85
2023/06/28 01:50:51;;;;;;;;;;;;;;;;;;5010979;28;8510;-85
2023/06/28 01:53:18;;;;;;;;;;;;;;;;;;5011325;28;7413;-85
2023/06/28 01:55:43;;;;;;;;;;;;;;;;;;5011256;28;7232;-85
2023/06/28 01:58:09;;;;;;;;;;;;;;;;;;5011732;28;8390;-85
2023/06/28 02:00:34;;;;;;;;;;;;;;;;;;5013859;28;8535;-85
2023/06/28 02:03:00;;;;;;;;;;;;;;;;;;5014439;28;8408;-85
2023/06/28 02:05:25;;;;;;;;;;;;;;;;;;5014639;28;7098;-85
2023/06/28 02:07:51;;;;;;;;;;;;;;;;;;5013993;28;8582;-85
2023/06/28 02:10:20;;;;;;;;;;;;;;;;;;5014317;28;7079;-85
2023/06/28 02:12:46;;;;;;;;;;;;;;;;;;5014445;28;6865;-85
2023/06/28 02:15:12;;;;;;;;;;;;;;;;;;5014164;28;8419;-85
2023/06/28 02:17:38;;;;;;;;;;;;;;;;;;5014128;28;8843;-85
2023/06/28 02:20:04;;;;;;;;;;;;;;;;;;5014091;28;8390;-85
2023/06/28 02:22:30;;;;;;;;;;;;;;;;;;5014052;28;8388;-85
2023/06/28 02:24:55;;;;;;;;;;;;;;;;;;5014439;28;8458;-85
2023/06/28 02:27:20;;;;;;;;;;;;;;;;;;5013575;28;8732;-85
2023/06/28 02:29:46;;;;;;;;;;;;;;;;;;5005373;28;8617;-85
2023/06/28 02:32:12;;;;;;;;;;;;;;;;;;4978133;28;8570;-85
2023/06/28 02:34:37;;;;;;;;;;;;;;;;;;4978184;28;8642;-85
2023/06/28 02:37:03;;;;;;;;;;;;;;;;;;4978039;28;7205;-85
2023/06/28 02:39:29;;;;;;;;;;;;;;;;;;4978140;28;7183;-86
2023/06/28 02:41:54;;;;;;;;;;;;;;;;;;4978219;28;8631;-86
2023/06/28 02:44:20;;;;;;;;;;;;;;;;;;4978052;28;7203;-86
2023/06/28 02:46:45;;;;;;;;;;;;;;;;;;4978086;28;8466;-87
2023/06/28 02:49:11;;;;;;;;;;;;;;;;;;4977801;28;8406;-86
2023/06/28 02:51:37;;;;;;;;;;;;;;;;;;4977674;28;7111;-86
2023/06/28 02:54:02;;;;;;;;;;;;;;;;;;4977548;28;7453;-86
2023/06/28 02:56:28;;;;;;;;;;;;;;;;;;4977653;28;8517;-86
2023/06/28 02:58:54;;;;;;;;;;;;;;;;;;4977931;28;8465;-86
2023/06/28 03:01:20;;;;;;;;;;;;;;;;;;4977380;28;7158;-86
2023/06/28 03:03:46;;;;;;;;;;;;;;;;;;4976781;28;9082;-86
2023/06/28 03:06:12;;;;;;;;;;;;;;;;;;4977722;28;7433;-86
2023/06/28 03:08:38;;;;;;;;;;;;;;;;;;4977703;28;8476;-86
2023/06/28 03:11:03;;;;;;;;;;;;;;;;;;4977982;28;8684;-86
2023/06/28 03:13:29;;;;;;;;;;;;;;;;;;4977609;28;8722;-85
2023/06/28 03:15:54;;;;;;;;;;;;;;;;;;4977049;28;8370;-85
2023/06/28 03:18:20;;;;;;;;;;;;;;;;;;5000447;28;8374;-85
2023/06/28 03:20:45;;;;;;;;;;;;;;;;;;4977436;28;8677;-85
2023/06/28 03:23:11;;;;;;;;;;;;;;;;;;4977480;28;7193;-86
2023/06/28 03:25:36;;;;;;;;;;;;;;;;;;4977323;28;7073;-85
2023/06/28 03:28:02;;;;;;;;;;;;;;;;;;4981281;28;8345;-85
2023/06/28 03:30:27;;;;;;;;;;;;;;;;;;5004218;28;8742;-85
2023/06/28 03:32:53;;;;;;;;;;;;;;;;;;5012877;28;7094;-86
2023/06/28 03:35:20;;;;;;;;;;;;;;;;;;5013006;28;8710;-86
2023/06/28 03:37:50;;;;;;;;;;;;;;;;;;5012720;28;8518;-86
2023/06/28 03:40:15;;;;;;;;;;;;;;;;;;5013233;28;7226;-85
2023/06/28 03:42:41;;;;;;;;;;;;;;;;;;5012929;28;9646;-85
2023/06/28 03:45:06;;;;;;;;;;;;;;;;;;5012692;28;8881;-85
2023/06/28 03:47:35;;;;;;;;;;;;;;;;;;5012842;28;8857;-85
2023/06/28 03:50:00;;;;;;;;;;;;;;;;;;5013140;28;7089;-86
2023/06/28 03:52:26;;;;;;;;;;;;;;;;;;5012945;28;7075;-86
2023/06/28 03:54:52;;;;;;;;;;;;;;;;;;5012563;28;8485;-86
2023/06/28 03:57:18;;;;;;;;;;;;;;;;;;5002213;28;8594;-86
2023/06/28 03:59:43;;;;;;;;;;;;;;;;;;4976571;28;8563;-85
2023/06/28 04:02:09;;;;;;;;;;;;;;;;;;4975998;28;7568;-86
2023/06/28 04:04:34;;;;;;;;;;;;;;;;;;4976742;28;8471;-86
2023/06/28 04:07:03;;;;;;;;;;;;;;;;;;4976494;28;7089;-84
2023/06/28 04:09:28;;;;;;;;;;;;;;;;;;4976816;28;8571;-84
2023/06/28 04:11:54;;;;;;;;;;;;;;;;;;4976651;28;8563;-82
2023/06/28 04:14:20;;;;;;;;;;;;;;;;;;4976163;28;8514;-80
2023/06/28 04:16:45;;;;;;;;;;;;;;;;;;4974899;28;8643;-81
2023/06/28 04:19:11;;;;;;;;;;;;;;;;;;4975369;28;7395;-81
2023/06/28 04:21:36;;;;;;;;;;;;;;;;;;4976054;28;8924;-83
2023/06/28 04:24:02;;;;;;;;;;;;;;;;;;4975527;28;8437;-83
2023/06/28 04:26:27;;;;;;;;;;;;;;;;;;4975593;28;7216;-83
2023/06/28 04:28:53;;;;;;;;;;;;;;;;;;4975464;28;8364;-83
2023/06/28 04:31:19;;;;;;;;;;;;;;;;;;4976286;28;7086;-84
2023/06/28 04:33:46;;;;;;;;;;;;;;;;;;4976466;28;7134;-84
2023/06/28 04:36:11;;;;;;;;;;;;;;;;;;4976428;28;7414;-84
2023/06/28 04:38:39;;;;;;;;;;;;;;;;;;4976566;28;7055;-84
2023/06/28 04:41:05;;;;;;;;;;;;;;;;;;4976426;28;8888;-84
2023/06/28 04:43:38;;;;;;;;;;;;;;;;;;4976358;28;8628;-83
2023/06/28 04:46:04;;;;;;;;;;;;;;;;;;4976481;28;9399;-84
2023/06/28 04:48:29;;;;;;;;;;;;;;;;;;4976425;28;7279;-84
2023/06/28 04:50:55;;;;;;;;;;;;;;;;;;4976172;28;8445;-83
2023/06/28 04:53:20;;;;;;;;;;;;;;;;;;4976680;28;8470;-85
2023/06/28 04:55:47;;;;;;;;;;;;;;;;;;4976260;28;8478;-79
2023/06/28 04:58:13;;;;;;;;;;;;;;;;;;4976433;28;7189;-85
2023/06/28 05:00:39;;;;;;;;;;;;;;;;;;4976890;28;7202;-84
2023/06/28 05:03:05;;;;;;;;;;;;;;;;;;4991250;28;8867;-85
2023/06/28 05:05:30;;;;;;;;;;;;;;;;;;4991835;28;8504;-83
2023/06/28 05:07:56;;;;;;;;;;;;;;;;;;4991824;28;7096;-84
2023/06/28 05:10:23;;;;;;;;;;;;;;;;;;4991717;28;7176;-83
2023/06/28 05:12:50;;;;;;;;;;;;;;;;;;4991479;28;7104;-86
2023/06/28 05:15:16;;;;;;;;;;;;;;;;;;4991833;28;8403;-83
2023/06/28 05:17:42;;;;;;;;;;;;;;;;;;4992528;28;8464;-84
2023/06/28 05:20:08;;;;;;;;;;;;;;;;;;4992643;28;7079;-86
2023/06/28 05:22:34;;;;;;;;;;;;;;;;;;4991622;28;7242;-86
2023/06/28 05:25:00;;;;;;;;;;;;;;;;;;5001949;28;7104;-86
2023/06/28 05:27:25;;;;;;;;;;;;;;;;;;4979527;28;7124;-85
2023/06/28 05:29:51;;;;;;;;;;;;;;;;;;4985340;28;7143;-83
2023/06/28 05:32:18;;;;;;;;;;;;;;;;;;5015366;28;8494;-83
2023/06/28 05:34:43;;;;;;;;;;;;;;;;;;5015425;28;7428;-83
2023/06/28 05:37:09;;;;;;;;;;;;;;;;;;5015649;28;8461;-84
2023/06/28 05:39:35;;;;;;;;;;;;;;;;;;5015210;28;7233;-84
2023/06/28 05:42:00;;;;;;;;;;;;;;;;;;5014978;28;8408;-83
2023/06/28 05:44:26;;;;;;;;;;;;;;;;;;5014847;28;8446;-83
2023/06/28 05:46:52;;;;;;;;;;;;;;;;;;5014864;28;8507;-82
2023/06/28 05:49:18;;;;;;;;;;;;;;;;;;5013010;28;7277;-83
2023/06/28 05:51:44;;;;;;;;;;;;;;;;;;4987539;28;7280;-84
2023/06/28 05:54:09;;;;;;;;;;;;;;;;;;4996092;28;8454;-83
2023/06/28 05:56:35;;;;;;;;;;;;;;;;;;5001822;28;8410;-83
2023/06/28 05:59:00;;;;;;;;;;;;;;;;;;4997284;28;7205;-83
2023/06/28 06:01:26;;;;;;;;;;;;;;;;;;4993210;28;8858;-85
2023/06/28 06:03:51;;;;;;;;;;;;;;;;;;4993039;28;7201;-85
2023/06/28 06:06:18;;;;;;;;;;;;;;;;;;4994581;28;7357;-84
2023/06/28 06:08:43;;;;;;;;;;;;;;;;;;4994502;28;8630;-85
2023/06/28 06:11:11;;;;;;;;;;;;;;;;;;4996382;28;7247;-83
2023/06/28 06:13:37;;;;;;;;;;;;;;;;;;5004535;28;8555;-86
2023/06/28 06:16:02;;;;;;;;;;;;;;;;;;4997730;28;7354;-85
2023/06/28 06:18:28;;;;;;;;;;;;;;;;;;5005104;28;7209;-84
2023/06/28 06:20:53;;;;;;;;;;;;;;;;;;5003629;28;8892;-84
2023/06/28 06:23:19;;;;;;;;;;;;;;;;;;4990143;28;7149;-89
2023/06/28 06:25:44;;;;;;;;;;;;;;;;;;5005547;28;8893;-83
2023/06/28 06:28:10;;;;;;;;;;;;;;;;;;4999895;28;7107;-83
2023/06/28 06:30:36;;;;;;;;;;;;;;;;;;5002813;28;8838;-84
2023/06/28 06:33:02;;;;;;;;;;;;;;;;;;5000003;28;7223;-83
2023/06/28 06:35:27;;;;;;;;;;;;;;;;;;4989612;28;7334;-85
2023/06/28 06:37:53;;;;;;;;;;;;;;;;;;4993931;28;8844;-84
2023/06/28 06:40:20;;;;;;;;;;;;;;;;;;4994140;28;7540;-85
2023/06/28 06:42:46;;;;;;;;;;;;;;;;;;4994177;28;8767;-85
2023/06/28 06:45:17;;;;;;;;;;;;;;;;;;4993978;28;7155;-82
2023/06/28 06:47:44;;;;;;;;;;;;;;;;;;4994186;28;8431;-82
2023/06/28 06:50:10;;;;;;;;;;;;;;;;;;4992941;28;8558;-81
2023/06/28 06:52:37;;;;;;;;;;;;;;;;;;4993002;28;7151;-82
2023/06/28 06:55:03;;;;;;;;;;;;;;;;;;4992556;28;7360;-82
2023/06/28 06:57:29;;;;;;;;;;;;;;;;;;4992601;28;8925;-80
2023/06/28 06:59:54;;;;;;;;;;;;;;;;;;4992607;28;8765;-81
2023/06/28 07:02:21;;;;;;;;;;;;;;;;;;4992420;28;7588;-80
2023/06/28 07:04:48;;;;;;;;;;;;;;;;;;4993586;28;8474;-80
2023/06/28 07:07:13;;;;;;;;;;;;;;;;;;4993548;28;7102;-81
2023/06/28 07:09:39;;;;;;;;;;;;;;;;;;4993806;28;8497;-81
2023/06/28 07:12:05;;;;;;;;;;;;;;;;;;4993630;28;7245;-82
2023/06/28 07:14:30;;;;;;;;;;;;;;;;;;4990246;28;8512;-80
2023/06/28 07:16:56;;;;;;;;;;;;;;;;;;4998388;28;7220;-81
2023/06/28 07:19:21;;;;;;;;;;;;;;;;;;4977582;28;8895;-81
2023/06/28 07:21:46;;;;;;;;;;;;;;;;;;4994369;28;8519;-81
2023/06/28 07:24:12;;;;;;;;;;;;;;;;;;4977310;28;8670;-82
2023/06/28 07:26:38;;;;;;;;;;;;;;;;;;4992051;28;8440;-81
2023/06/28 07:29:03;;;;;;;;;;;;;;;;;;5013035;28;8502;-81
2023/06/28 07:31:29;;;;;;;;;;;;;;;;;;5012826;28;7561;-81
2023/06/28 07:33:54;;;;;;;;;;;;;;;;;;5011962;28;8608;-81
2023/06/28 07:36:20;;;;;;;;;;;;;;;;;;4976958;28;8535;-80
2023/06/28 07:38:45;;;;;;;;;;;;;;;;;;4976878;28;7231;-80
2023/06/28 07:41:11;;;;;;;;;;;;;;;;;;4987204;28;7144;-80
2023/06/28 07:43:36;;;;;;;;;;;;;;;;;;4995831;28;8875;-81
2023/06/28 07:46:03;;;;;;;;;;;;;;;;;;4989678;28;8534;-81
2023/06/28 07:48:29;;;;;;;;;;;;;;;;;;5010245;28;8953;-81
2023/06/28 07:50:55;;;;;;;;;;;;;;;;;;5012731;28;7250;-81
2023/06/28 07:53:20;;;;;;;;;;;;;;;;;;4994619;28;8502;-81
2023/06/28 07:55:46;;;;;;;;;;;;;;;;;;4992677;28;8639;-80
2023/06/28 07:58:11;;;;;;;;;;;;;;;;;;4992701;28;7242;-81
2023/06/28 08:00:37;;;;;;;;;;;;;;;;;;4992559;28;8631;-81
2023/06/28 08:03:02;;;;;;;;;;;;;;;;;;5005100;28;8545;-82
2023/06/28 08:05:29;;;;;;;;;;;;;;;;;;4997476;28;7295;-81
2023/06/28 08:07:55;;;;;;;;;;;;;;;;;;4992697;28;8541;-83
2023/06/28 08:10:21;;;;;;;;;;;;;;;;;;4992956;28;8632;-82
2023/06/28 08:12:47;;;;;;;;;;;;;;;;;;4999488;28;7847;-80
2023/06/28 08:15:12;;;;;;;;;;;;;;;;;;5004726;28;8669;-82
2023/06/28 08:17:38;;;;;;;;;;;;;;;;;;4987675;28;8702;-80
2023/06/28 08:20:03;;;;;;;;;;;;;;;;;;5010861;28;7331;-80
2023/06/28 08:22:29;;;;;;;;;;;;;;;;;;4992777;28;8497;-80
2023/06/28 08:24:54;;;;;;;;;;;;;;;;;;4992521;28;8605;-80
2023/06/28 08:27:20;;;;;;;;;;;;;;;;;;4992452;28;8774;-80
2023/06/28 08:29:45;;;;;;;;;;;;;;;;;;4992455;28;8502;-80
2023/06/28 08:32:11;;;;;;;;;;;;;;;;;;4992995;28;9163;-80
2023/06/28 08:34:36;;;;;;;;;;;;;;;;;;4992534;28;7477;-80
2023/06/28 08:37:03;;;;;;;;;;;;;;;;;;5008126;28;8488;-80
2023/06/28 08:39:29;;;;;;;;;;;;;;;;;;5012133;28;8516;-81
2023/06/28 08:41:56;;;;;;;;;;;;;;;;;;5012036;28;7333;-80
2023/06/28 08:44:23;;;;;;;;;;;;;;;;;;5011978;28;7262;-80
2023/06/28 08:46:50;;;;;;;;;;;;;;;;;;5012240;28;7144;-81
2023/06/28 08:49:16;;;;;;;;;;;;;;;;;;5011835;28;8532;-80
2023/06/28 08:51:43;;;;;;;;;;;;;;;;;;5011773;28;8387;-81
2023/06/28 08:54:09;;;;;;;;;;;;;;;;;;5012040;28;7505;-80
2023/06/28 08:56:35;;;;;;;;;;;;;;;;;;5011589;28;7626;-82
2023/06/28 08:59:02;;;;;;;;;;;;;;;;;;5011842;28;8515;-81
2023/06/28 09:01:29;;;;;;;;;;;;;;;;;;5010231;28;8405;-80
2023/06/28 09:03:56;;;;;;;;;;;;;;;;;;4988893;28;7532;-80
2023/06/28 09:06:22;;;;;;;;;;;;;;;;;;4976403;28;7526;-81
2023/06/28 09:08:48;;;;;;;;;;;;;;;;;;4975926;28;8571;-79
2023/06/28 09:11:16;;;;;;;;;;;;;;;;;;4976222;28;8526;-80
2023/06/28 09:13:42;;;;;;;;;;;;;;;;;;4981367;28;8411;-80
2023/06/28 09:16:09;;;;;;;;;;;;;;;;;;4992855;28;8814;-80
2023/06/28 09:18:35;;;;;;;;;;;;;;;;;;4992466;28;8784;-80
2023/06/28 09:21:01;;;;;;;;;;;;;;;;;;4992366;28;8519;-80
2023/06/28 09:23:27;;;;;;;;;;;;;;;;;;4992172;28;7252;-80
2023/06/28 09:25:54;;;;;;;;;;;;;;;;;;4996548;28;8536;-80
2023/06/28 09:28:22;;;;;;;;;;;;;;;;;;5004070;28;8843;-80
2023/06/28 09:30:52;;;;;;;;;;;;;;;;;;5008864;28;8541;-82
2023/06/28 09:33:18;;;;;;;;;;;;;;;;;;4997928;28;7162;-84
2023/06/28 09:35:44;;;;;;;;;;;;;;;;;;4977184;28;8572;-79
2023/06/28 09:38:10;;;;;;;;;;;;;;;;;;4993914;28;9279;-79
2023/06/28 09:40:36;;;;;;;;;;;;;;;;;;4998192;28;7256;-80
2023/06/28 09:43:01;;;;;;;;;;;;;;;;;;4975326;28;8638;-81
2023/06/28 09:45:28;;;;;;;;;;;;;;;;;;4975583;28;7352;-79
2023/06/28 09:47:56;;;;;;;;;;;;;;;;;;4975633;28;9204;-80
2023/06/28 09:50:22;;;;;;;;;;;;;;;;;;4975416;28;6920;-81
2023/06/28 09:52:48;;;;;;;;;;;;;;;;;;4975397;28;7208;-81
2023/06/28 09:55:14;;;;;;;;;;;;;;;;;;4984693;28;8538;-80
2023/06/28 09:57:42;;;;;;;;;;;;;;;;;;4994626;28;8566;-80
2023/06/28 10:00:10;;;;;;;;;;;;;;;;;;4994278;28;8547;-81
2023/06/28 10:02:38;;;;;;;;;;;;;;;;;;4994086;28;7160;-80
2023/06/28 10:05:05;;;;;;;;;;;;;;;;;;4993734;28;7242;-81
2023/06/28 10:07:31;;;;;;;;;;;;;;;;;;5001394;28;9432;-80
2023/06/28 10:09:57;;;;;;;;;;;;;;;;;;4994221;28;7493;-80
2023/06/28 10:12:24;;;;;;;;;;;;;;;;;;4993647;28;8668;-80
2023/06/28 10:15:02;;;;;;;;;;;;;;;;;;4993688;28;8386;-81
2023/06/28 10:17:34;;;;;;;;;;;;;;;;;;4991513;28;8936;-80
2023/06/28 10:20:00;;;;;;;;;;;;;;;;;;4993804;28;7229;-80
2023/06/28 10:22:26;;;;;;;;;;;;;;;;;;4994346;28;8504;-80
2023/06/28 10:24:53;;;;;;;;;;;;;;;;;;4994253;28;8503;-80
2023/06/28 10:27:19;;;;;;;;;;;;;;;;;;4990903;28;8585;-80
2023/06/28 10:29:50;;;;;;;;;;;;;;;;;;4994361;28;8974;-79
2023/06/28 10:32:16;;;;;;;;;;;;;;;;;;5001492;28;8905;-80
2023/06/28 10:34:42;;;;;;;;;;;;;;;;;;4992735;28;8542;-81
2023/06/28 10:37:08;;;;;;;;;;;;;;;;;;4975191;28;8570;-82
2023/06/28 10:39:38;;;;;;;;;;;;;;;;;;4974607;28;8456;-79
2023/06/28 10:42:05;;;;;;;;;;;;;;;;;;4974894;28;8896;-81
2023/06/28 10:44:31;;;;;;;;;;;;;;;;;;4974755;28;7261;-81
2023/06/28 10:47:13;;;;;;;;;;;;;;;;;;4974877;28;7320;-82
2023/06/28 10:49:42;;;;;;;;;;;;;;;;;;4975012;28;7150;-83
2023/06/28 10:52:17;;;;;;;;;;;;;;;;;;4974847;28;7196;-81
2023/06/28 10:54:43;;;;;;;;;;;;;;;;;;4974748;28;8640;-81
2023/06/28 10:57:14;;;;;;;;;;;;;;;;;;4974283;28;7328;-81
2023/06/28 10:59:41;;;;;;;;;;;;;;;;;;4974367;28;8489;-80
2023/06/28 11:02:07;;;;;;;;;;;;;;;;;;4973465;28;7259;-80
2023/06/28 11:04:32;;;;;;;;;;;;;;;;;;4974168;28;8923;-79
2023/06/28 11:07:07;;;;;;;;;;;;;;;;;;4974394;28;8428;-81
2023/06/28 11:09:34;;;;;;;;;;;;;;;;;;4990489;28;8542;-80
2023/06/28 11:12:00;;;;;;;;;;;;;;;;;;4974522;28;7623;-81
2023/06/28 11:14:32;;;;;;;;;;;;;;;;;;4993720;28;8684;-81
2023/06/28 11:17:02;;;;;;;;;;;;;;;;;;4993422;28;9532;-81
2023/06/28 11:19:28;;;;;;;;;;;;;;;;;;4993416;28;7263;-82
2023/06/28 11:21:58;;;;;;;;;;;;;;;;;;4993763;28;7710;-80
2023/06/28 11:24:36;;;;;;;;;;;;;;;;;;4992329;28;8529;-81
2023/06/28 11:27:02;;;;;;;;;;;;;;;;;;4999190;28;7159;-81
2023/06/28 11:29:27;;;;;;;;;;;;;;;;;;4989906;28;7278;-81
2023/06/28 11:31:57;;;;;;;;;;;;;;;;;;4993059;28;8823;-81
2023/06/28 11:34:24;;;;;;;;;;;;;;;;;;5005744;28;8573;-81
2023/06/28 11:36:51;;;;;;;;;;;;;;;;;;4993382;28;8507;-82
2023/06/28 11:39:21;;;;;;;;;;;;;;;;;;4992805;28;7017;-83
2023/06/28 11:41:47;;;;;;;;;;;;;;;;;;4993229;28;7278;-82
2023/06/28 11:44:13;;;;;;;;;;;;;;;;;;4992831;28;8460;-82
2023/06/28 11:46:40;;;;;;;;;;;;;;;;;;4992739;28;7721;-82
2023/06/28 11:49:06;;;;;;;;;;;;;;;;;;4992909;28;7261;-82
2023/06/28 11:51:33;;;;;;;;;;;;;;;;;;4992826;28;8518;-82
2023/06/28 11:53:59;;;;;;;;;;;;;;;;;;4993202;28;8427;-81
2023/06/28 11:56:41;;;;;;;;;;;;;;;;;;4992162;28;7800;-82
2023/06/28 11:59:14;;;;;;;;;;;;;;;;;;4991781;28;7219;-82
2023/06/28 12:01:40;;;;;;;;;;;;;;;;;;5005784;28;7301;-82
2023/06/28 12:04:19;;;;;;;;;;;;;;;;;;5005196;28;7274;-82
2023/06/28 12:06:46;;;;;;;;;;;;;;;;;;5008789;28;7232;-82
2023/06/28 12:09:27;;;;;;;;;;;;;;;;;;5008988;28;9441;-82
2023/06/28 12:11:53;;;;;;;;;;;;;;;;;;5008999;28;7281;-81
2023/06/28 12:14:23;;;;;;;;;;;;;;;;;;5008809;28;7252;-81
2023/06/28 12:16:52;;;;;;;;;;;;;;;;;;4994304;28;7518;-81
2023/06/28 12:19:19;;;;;;;;;;;;;;;;;;4983496;28;8662;-82
2023/06/28 12:21:45;;;;;;;;;;;;;;;;;;4989662;28;9688;-82
2023/06/28 12:24:37;;;;;;;;;;;;;;;;;;4973757;28;7109;-82
2023/06/28 12:27:06;;;;;;;;;;;;;;;;;;4973087;28;7158;-82
2023/06/28 12:29:35;;;;;;;;;;;;;;;;;;4972987;28;8781;-82
2023/06/28 12:32:05;;;;;;;;;;;;;;;;;;4973019;28;7166;-86
2023/06/28 12:34:34;;;;;;;;;;;;;;;;;;4974159;28;7339;-83
2023/06/28 12:37:07;;;;;;;;;;;;;;;;;;4977000;28;8526;-88
2023/06/28 12:39:34;;;;;;;;;;;;;;;;;;4977151;28;7275;-83
2023/06/28 12:42:15;;;;;;;;;;;;;;;;;;4976846;28;8986;-82
2023/06/28 12:44:51;;;;;;;;;;;;;;;;;;4993257;28;8798;-84
2023/06/28 12:47:24;;;;;;;;;;;;;;;;;;4976715;28;8437;-84
2023/06/28 12:49:53;;;;;;;;;;;;;;;;;;4999850;28;7154;-83
2023/06/28 12:52:26;;;;;;;;;;;;;;;;;;5012019;28;7398;-83
2023/06/28 12:54:52;;;;;;;;;;;;;;;;;;5012220;28;8610;-83
2023/06/28 12:57:18;;;;;;;;;;;;;;;;;;5011951;28;8646;-83
2023/06/28 12:59:44;;;;;;;;;;;;;;;;;;5012313;28;7281;-83
2023/06/28 13:02:10;;;;;;;;;;;;;;;;;;5012207;28;9057;-83
2023/06/28 13:04:36;;;;;;;;;;;;;;;;;;5012261;28;8525;-83
2023/06/28 13:07:06;;;;;;;;;;;;;;;;;;5008473;28;8503;-83
2023/06/28 13:09:31;;;;;;;;;;;;;;;;;;5011089;28;8465;-83
2023/06/28 13:11:57;;;;;;;;;;;;;;;;;;5005812;28;8714;-83
2023/06/28 13:14:23;;;;;;;;;;;;;;;;;;4976491;28;7208;-83
2023/06/28 13:16:48;;;;;;;;;;;;;;;;;;4978544;28;8490;-84
2023/06/28 13:19:14;;;;;;;;;;;;;;;;;;4995729;28;8920;-83
2023/06/28 13:21:39;;;;;;;;;;;;;;;;;;5014761;28;8757;-83
2023/06/28 13:24:06;;;;;;;;;;;;;;;;;;5004441;28;8593;-83
2023/06/28 13:26:32;;;;;;;;;;;;;;;;;;4976188;28;8430;-84
2023/06/28 13:28:58;;;;;;;;;;;;;;;;;;4975890;28;8526;-83
2023/06/28 13:31:23;;;;;;;;;;;;;;;;;;4975929;28;9457;-83
2023/06/28 13:33:49;;;;;;;;;;;;;;;;;;4975929;28;7075;-83
2023/06/28 13:36:19;;;;;;;;;;;;;;;;;;4975956;28;8474;-80
2023/06/28 13:38:45;;;;;;;;;;;;;;;;;;4975831;28;7146;-80
2023/06/28 13:41:10;;;;;;;;;;;;;;;;;;4982809;28;8620;-80
2023/06/28 13:43:36;;;;;;;;;;;;;;;;;;4991422;28;8910;-81
2023/06/28 13:46:01;;;;;;;;;;;;;;;;;;5010809;28;8540;-83
2023/06/28 13:48:27;;;;;;;;;;;;;;;;;;5008015;28;8801;-82
2023/06/28 13:50:53;;;;;;;;;;;;;;;;;;4975691;28;8702;-83
2023/06/28 13:53:18;;;;;;;;;;;;;;;;;;4975764;28;8796;-83
2023/06/28 13:55:44;;;;;;;;;;;;;;;;;;4975450;28;7247;-82
2023/06/28 13:58:10;;;;;;;;;;;;;;;;;;4975616;28;7148;-83
2023/06/28 14:00:35;;;;;;;;;;;;;;;;;;4978039;28;8530;-83
2023/06/28 14:03:01;;;;;;;;;;;;;;;;;;4995551;28;7222;-82
2023/06/28 14:05:27;;;;;;;;;;;;;;;;;;4994458;28;8492;-83
2023/06/28 14:07:52;;;;;;;;;;;;;;;;;;4994942;28;6918;-83
2023/06/28 14:10:17;;;;;;;;;;;;;;;;;;4995037;28;8860;-82
2023/06/28 14:12:43;;;;;;;;;;;;;;;;;;4994958;28;8573;-84
2023/06/28 14:15:10;;;;;;;;;;;;;;;;;;4994422;28;7269;-82
2023/06/28 14:17:35;;;;;;;;;;;;;;;;;;4994789;28;7232;-82
2023/06/28 14:20:01;;;;;;;;;;;;;;;;;;4994478;28;7262;-82
2023/06/28 14:22:27;;;;;;;;;;;;;;;;;;4994368;28;7234;-82
2023/06/28 14:24:53;;;;;;;;;;;;;;;;;;5006759;28;8782;-81
2023/06/28 14:27:18;;;;;;;;;;;;;;;;;;5014389;28;8833;-82
2023/06/28 14:29:44;;;;;;;;;;;;;;;;;;5014103;28;8684;-84
2023/06/28 14:32:09;;;;;;;;;;;;;;;;;;5007666;28;7550;-81
2023/06/28 14:34:35;;;;;;;;;;;;;;;;;;5010456;28;7125;-81
2023/06/28 14:37:00;;;;;;;;;;;;;;;;;;4994444;28;8444;-80
2023/06/28 14:39:26;;;;;;;;;;;;;;;;;;4994481;28;8486;-80
2023/06/28 14:41:51;;;;;;;;;;;;;;;;;;4995909;28;8526;-81
2023/06/28 14:44:17;;;;;;;;;;;;;;;;;;5004524;28;8431;-81
2023/06/28 14:46:42;;;;;;;;;;;;;;;;;;5004125;28;8544;-81
2023/06/28 14:49:08;;;;;;;;;;;;;;;;;;4977607;28;8535;-82
2023/06/28 14:51:33;;;;;;;;;;;;;;;;;;4977720;28;8525;-83
2023/06/28 14:53:59;;;;;;;;;;;;;;;;;;4977943;28;8680;-82
2023/06/28 14:56:25;;;;;;;;;;;;;;;;;;4977899;28;8044;-81
2023/06/28 14:58:51;;;;;;;;;;;;;;;;;;4977606;28;7063;-81
2023/06/28 15:01:16;;;;;;;;;;;;;;;;;;4977383;28;8870;-82
2023/06/28 15:03:42;;;;;;;;;;;;;;;;;;4985958;28;7277;-82
2023/06/28 15:06:07;;;;;;;;;;;;;;;;;;4993341;28;8592;-82
2023/06/28 15:08:32;;;;;;;;;;;;;;;;;;4977296;28;7102;-83
2023/06/28 15:10:58;;;;;;;;;;;;;;;;;;4977126;28;8499;-83
2023/06/28 15:13:25;;;;;;;;;;;;;;;;;;4977418;28;7205;-83
2023/06/28 15:15:50;;;;;;;;;;;;;;;;;;4977070;28;8830;-83
2023/06/28 15:18:15;;;;;;;;;;;;;;;;;;4991079;28;8497;-83
2023/06/28 15:20:41;;;;;;;;;;;;;;;;;;4977596;28;8515;-82
2023/06/28 15:23:08;;;;;;;;;;;;;;;;;;5005373;28;8522;-80
2023/06/28 15:25:34;;;;;;;;;;;;;;;;;;5012693;28;8848;-81
2023/06/28 15:28:00;;;;;;;;;;;;;;;;;;5012737;28;8578;-80
2023/06/28 15:30:25;;;;;;;;;;;;;;;;;;5013120;28;8474;-80
2023/06/28 15:32:51;;;;;;;;;;;;;;;;;;5012390;28;7166;-81
2023/06/28 15:35:16;;;;;;;;;;;;;;;;;;4996167;28;8436;-82
2023/06/28 15:37:42;;;;;;;;;;;;;;;;;;4984674;28;8624;-79
2023/06/28 15:40:07;;;;;;;;;;;;;;;;;;4993695;28;7157;-81
2023/06/28 15:42:33;;;;;;;;;;;;;;;;;;4976884;28;8503;-81
2023/06/28 15:45:00;;;;;;;;;;;;;;;;;;4976968;28;8820;-81
2023/06/28 15:47:25;;;;;;;;;;;;;;;;;;4976699;28;7432;-82
2023/06/28 15:49:51;;;;;;;;;;;;;;;;;;4976136;28;7409;-81
2023/06/28 15:52:16;;;;;;;;;;;;;;;;;;4974851;28;8540;-80
2023/06/28 15:54:43;;;;;;;;;;;;;;;;;;4977044;28;7453;-83
2023/06/28 15:57:12;;;;;;;;;;;;;;;;;;4982152;28;7347;-82
2023/06/28 15:59:38;;;;;;;;;;;;;;;;;;4978967;28;8625;-81
2023/06/28 16:02:06;;;;;;;;;;;;;;;;;;4995853;28;7261;-81
2023/06/28 16:04:32;;;;;;;;;;;;;;;;;;4981864;28;8236;-83
2023/06/28 16:06:57;;;;;;;;;;;;;;;;;;5009114;28;8086;-84
2023/06/28 16:09:23;;;;;;;;;;;;;;;;;;5000587;28;8516;-84
2023/06/28 16:11:49;;;;;;;;;;;;;;;;;;4973206;28;8559;-84
2023/06/28 16:14:15;;;;;;;;;;;;;;;;;;4973192;28;8488;-84
2023/06/28 16:16:44;;;;;;;;;;;;;;;;;;4975624;28;8524;-83
2023/06/28 16:19:10;;;;;;;;;;;;;;;;;;5005570;28;8927;-83
2023/06/28 16:21:36;;;;;;;;;;;;;;;;;;4998464;28;8557;-82
2023/06/28 16:24:01;;;;;;;;;;;;;;;;;;4972976;28;8516;-83
2023/06/28 16:26:27;;;;;;;;;;;;;;;;;;4973230;28;7212;-82
2023/06/28 16:28:53;;;;;;;;;;;;;;;;;;4972640;28;8826;-80
2023/06/28 16:31:18;;;;;;;;;;;;;;;;;;4973604;28;8644;-81
2023/06/28 16:33:44;;;;;;;;;;;;;;;;;;4973247;28;8446;-82
2023/06/28 16:36:09;;;;;;;;;;;;;;;;;;4973433;28;8790;-82
2023/06/28 16:38:35;;;;;;;;;;;;;;;;;;4972953;28;8755;-82
2023/06/28 16:41:00;;;;;;;;;;;;;;;;;;4973018;28;7299;-83
2023/06/28 16:43:25;;;;;;;;;;;;;;;;;;4973072;28;8684;-82
2023/06/28 16:45:51;;;;;;;;;;;;;;;;;;4972624;28;8593;-82
2023/06/28 16:48:16;;;;;;;;;;;;;;;;;;4972522;28;7451;-82
2023/06/28 16:50:42;;;;;;;;;;;;;;;;;;5001327;28;8833;-83
2023/06/28 16:53:07;;;;;;;;;;;;;;;;;;5002904;28;8808;-83
2023/06/28 16:55:33;;;;;;;;;;;;;;;;;;4979545;28;7489;-83
2023/06/28 16:57:58;;;;;;;;;;;;;;;;;;4991842;28;7464;-83